sensor_id;sensor_type;location;lat;lon;timestamp;temperature;humidity
1011;DHT22;494;48.744;10.106;2023-03-11T00:01:12;3.70;31.80
1011;DHT22;494;48.744;10.106;2023-03-11T00:03:40;3.90;31.80
1011;DHT22;494;48.744;10.106;2023-03-11T00:06:09;4.00;31.90
1011;DHT22;494;48.744;10.106;2023-03-11T00:08:38;3.80;31.20
1011;DHT22;494;48.744;10.106;2023-03-11T00:11:07;3.80;31.20
1011;DHT22;494;48.744;10.106;2023-03-11T00:13:36;3.90;30.90
1011;DHT22;494;48.744;10.106;2023-03-11T00:16:08;3.70;30.20
1011;DHT22;494;48.744;10.106;2023-03-11T00:18:37;3.80;31.00
1011;DHT22;494;48.744;10.106;2023-03-11T00:21:14;4.00;30.40
1011;DHT22;494;48.744;10.106;2023-03-11T00:23:44;4.10;30.20
1011;DHT22;494;48.744;10.106;2023-03-11T00:26:12;4.20;29.70
1011;DHT22;494;48.744;10.106;2023-03-11T00:28:41;4.20;28.90
1011;DHT22;494;48.744;10.106;2023-03-11T00:31:11;4.00;29.10
1011;DHT22;494;48.744;10.106;2023-03-11T00:33:40;4.00;30.00
1011;DHT22;494;48.744;10.106;2023-03-11T00:36:20;3.90;30.50
1011;DHT22;494;48.744;10.106;2023-03-11T00:38:51;3.60;31.00
1011;DHT22;494;48.744;10.106;2023-03-11T00:41:20;3.40;32.30
1011;DHT22;494;48.744;10.106;2023-03-11T00:43:49;3.50;32.60
1011;DHT22;494;48.744;10.106;2023-03-11T00:46:19;3.60;32.20
1011;DHT22;494;48.744;10.106;2023-03-11T00:48:49;3.60;32.20
1011;DHT22;494;48.744;10.106;2023-03-11T00:51:18;3.40;32.00
1011;DHT22;494;48.744;10.106;2023-03-11T00:53:47;3.40;31.70
1011;DHT22;494;48.744;10.106;2023-03-11T00:56:16;3.40;31.90
1011;DHT22;494;48.744;10.106;2023-03-11T00:58:45;3.40;31.30
1011;DHT22;494;48.744;10.106;2023-03-11T01:01:15;3.20;31.40
1011;DHT22;494;48.744;10.106;2023-03-11T01:03:46;3.40;31.30
1011;DHT22;494;48.744;10.106;2023-03-11T01:06:15;3.10;31.50
1011;DHT22;494;48.744;10.106;2023-03-11T01:08:46;3.10;30.50
1011;DHT22;494;48.744;10.106;2023-03-11T01:11:15;3.20;31.00
1011;DHT22;494;48.744;10.106;2023-03-11T01:13:44;3.40;29.90
1011;DHT22;494;48.744;10.106;2023-03-11T01:16:12;3.40;28.60
1011;DHT22;494;48.744;10.106;2023-03-11T01:18:41;3.20;29.50
1011;DHT22;494;48.744;10.106;2023-03-11T01:21:11;3.20;29.40
1011;DHT22;494;48.744;10.106;2023-03-11T01:23:40;3.30;30.00
1011;DHT22;494;48.744;10.106;2023-03-11T01:26:08;3.50;29.00
1011;DHT22;494;48.744;10.106;2023-03-11T01:28:37;3.50;28.60
1011;DHT22;494;48.744;10.106;2023-03-11T01:31:07;3.70;29.10
1011;DHT22;494;48.744;10.106;2023-03-11T01:33:36;3.60;28.90
1011;DHT22;494;48.744;10.106;2023-03-11T01:36:05;3.70;28.40
1011;DHT22;494;48.744;10.106;2023-03-11T01:38:36;3.80;28.30
1011;DHT22;494;48.744;10.106;2023-03-11T01:41:05;3.40;30.30
1011;DHT22;494;48.744;10.106;2023-03-11T01:43:49;3.30;30.60
1011;DHT22;494;48.744;10.106;2023-03-11T01:46:22;3.30;30.20
1011;DHT22;494;48.744;10.106;2023-03-11T01:48:54;3.20;31.10
1011;DHT22;494;48.744;10.106;2023-03-11T01:51:27;3.20;31.30
1011;DHT22;494;48.744;10.106;2023-03-11T01:54:03;3.40;31.50
1011;DHT22;494;48.744;10.106;2023-03-11T01:56:38;3.20;31.50
1011;DHT22;494;48.744;10.106;2023-03-11T01:59:11;3.20;32.00
1011;DHT22;494;48.744;10.106;2023-03-11T02:01:46;3.20;31.60
1011;DHT22;494;48.744;10.106;2023-03-11T02:04:20;3.30;32.10
1011;DHT22;494;48.744;10.106;2023-03-11T02:06:48;3.40;32.30
1011;DHT22;494;48.744;10.106;2023-03-11T02:09:21;3.20;32.30
1011;DHT22;494;48.744;10.106;2023-03-11T02:11:53;3.30;32.70
1011;DHT22;494;48.744;10.106;2023-03-11T02:14:23;3.50;32.80
1011;DHT22;494;48.744;10.106;2023-03-11T02:16:54;3.30;32.70
1011;DHT22;494;48.744;10.106;2023-03-11T02:19:31;3.20;33.10
1011;DHT22;494;48.744;10.106;2023-03-11T02:22:16;3.10;33.60
1011;DHT22;494;48.744;10.106;2023-03-11T02:24:53;3.00;32.70
1011;DHT22;494;48.744;10.106;2023-03-11T02:27:30;2.90;32.90
1011;DHT22;494;48.744;10.106;2023-03-11T02:30:01;2.80;33.80
1011;DHT22;494;48.744;10.106;2023-03-11T02:32:31;2.80;33.20
1011;DHT22;494;48.744;10.106;2023-03-11T02:35:00;2.80;33.60
1011;DHT22;494;48.744;10.106;2023-03-11T02:37:29;2.70;33.90
1011;DHT22;494;48.744;10.106;2023-03-11T02:40:28;2.80;34.30
1011;DHT22;494;48.744;10.106;2023-03-11T02:43:05;3.00;32.80
1011;DHT22;494;48.744;10.106;2023-03-11T02:45:37;3.10;32.00
1011;DHT22;494;48.744;10.106;2023-03-11T02:48:09;3.20;32.10
1011;DHT22;494;48.744;10.106;2023-03-11T02:50:39;3.20;31.60
1011;DHT22;494;48.744;10.106;2023-03-11T02:53:08;3.20;30.70
1011;DHT22;494;48.744;10.106;2023-03-11T02:55:37;3.30;30.70
1011;DHT22;494;48.744;10.106;2023-03-11T02:58:07;3.30;30.80
1011;DHT22;494;48.744;10.106;2023-03-11T03:00:35;3.30;29.50
1011;DHT22;494;48.744;10.106;2023-03-11T03:03:04;3.30;29.60
1011;DHT22;494;48.744;10.106;2023-03-11T03:05:33;3.60;29.10
1011;DHT22;494;48.744;10.106;2023-03-11T03:08:02;3.50;28.10
1011;DHT22;494;48.744;10.106;2023-03-11T03:10:31;3.50;27.90
1011;DHT22;494;48.744;10.106;2023-03-11T03:13:00;3.30;25.80
1011;DHT22;494;48.744;10.106;2023-03-11T03:15:30;3.20;26.20
1011;DHT22;494;48.744;10.106;2023-03-11T03:17:58;2.80;25.80
1011;DHT22;494;48.744;10.106;2023-03-11T03:20:27;2.80;27.30
1011;DHT22;494;48.744;10.106;2023-03-11T03:22:55;2.80;28.20
1011;DHT22;494;48.744;10.106;2023-03-11T03:25:24;2.80;26.00
1011;DHT22;494;48.744;10.106;2023-03-11T03:27:54;2.90;26.70
1011;DHT22;494;48.744;10.106;2023-03-11T03:30:22;2.80;26.10
1011;DHT22;494;48.744;10.106;2023-03-11T03:32:52;2.70;25.80
1011;DHT22;494;48.744;10.106;2023-03-11T03:35:21;2.60;26.30
1011;DHT22;494;48.744;10.106;2023-03-11T03:37:50;2.60;26.00
1011;DHT22;494;48.744;10.106;2023-03-11T03:40:18;2.70;26.50
1011;DHT22;494;48.744;10.106;2023-03-11T03:42:47;2.50;26.60
1011;DHT22;494;48.744;10.106;2023-03-11T03:45:16;2.40;25.20
1011;DHT22;494;48.744;10.106;2023-03-11T03:47:45;2.30;25.90
1011;DHT22;494;48.744;10.106;2023-03-11T03:50:15;2.30;26.40
1011;DHT22;494;48.744;10.106;2023-03-11T03:52:43;2.00;26.50
1011;DHT22;494;48.744;10.106;2023-03-11T03:55:12;2.10;27.00
1011;DHT22;494;48.744;10.106;2023-03-11T03:57:41;2.30;27.20
1011;DHT22;494;48.744;10.106;2023-03-11T04:00:10;2.40;27.00
1011;DHT22;494;48.744;10.106;2023-03-11T04:02:39;2.20;26.70
1011;DHT22;494;48.744;10.106;2023-03-11T04:05:09;2.30;27.10
1011;DHT22;494;48.744;10.106;2023-03-11T04:07:39;2.30;26.30
1011;DHT22;494;48.744;10.106;2023-03-11T04:10:08;2.40;26.50
1011;DHT22;494;48.744;10.106;2023-03-11T04:12:40;2.30;26.30
1011;DHT22;494;48.744;10.106;2023-03-11T04:15:09;2.20;26.90
1011;DHT22;494;48.744;10.106;2023-03-11T04:17:38;2.10;27.50
1011;DHT22;494;48.744;10.106;2023-03-11T04:20:08;2.10;27.80
1011;DHT22;494;48.744;10.106;2023-03-11T04:22:39;1.90;27.80
1011;DHT22;494;48.744;10.106;2023-03-11T04:25:07;1.90;28.20
1011;DHT22;494;48.744;10.106;2023-03-11T04:27:36;1.80;28.80
1011;DHT22;494;48.744;10.106;2023-03-11T04:30:09;1.80;29.10
1011;DHT22;494;48.744;10.106;2023-03-11T04:32:39;1.80;29.10
1011;DHT22;494;48.744;10.106;2023-03-11T04:35:08;1.70;29.60
1011;DHT22;494;48.744;10.106;2023-03-11T04:37:36;1.70;29.60
1011;DHT22;494;48.744;10.106;2023-03-11T04:40:08;1.70;29.50
1011;DHT22;494;48.744;10.106;2023-03-11T04:42:37;1.80;29.20
1011;DHT22;494;48.744;10.106;2023-03-11T04:45:07;2.00;29.00
1011;DHT22;494;48.744;10.106;2023-03-11T04:47:37;1.90;28.70
1011;DHT22;494;48.744;10.106;2023-03-11T04:50:06;2.00;28.90
1011;DHT22;494;48.744;10.106;2023-03-11T04:52:35;2.00;28.40
1011;DHT22;494;48.744;10.106;2023-03-11T04:55:06;2.10;28.80
1011;DHT22;494;48.744;10.106;2023-03-11T04:57:36;2.10;28.30
1011;DHT22;494;48.744;10.106;2023-03-11T05:00:06;2.20;28.10
1011;DHT22;494;48.744;10.106;2023-03-11T05:02:38;2.10;28.50
1011;DHT22;494;48.744;10.106;2023-03-11T05:05:08;2.10;28.90
1011;DHT22;494;48.744;10.106;2023-03-11T05:07:37;2.10;28.50
1011;DHT22;494;48.744;10.106;2023-03-11T05:10:08;2.20;28.70
1011;DHT22;494;48.744;10.106;2023-03-11T05:12:38;2.20;28.60
1011;DHT22;494;48.744;10.106;2023-03-11T05:15:07;2.20;27.90
1011;DHT22;494;48.744;10.106;2023-03-11T05:17:36;2.30;28.70
1011;DHT22;494;48.744;10.106;2023-03-11T05:20:05;2.50;28.60
1011;DHT22;494;48.744;10.106;2023-03-11T05:22:35;2.50;28.30
1011;DHT22;494;48.744;10.106;2023-03-11T05:25:04;2.50;28.10
1011;DHT22;494;48.744;10.106;2023-03-11T05:27:35;2.50;28.10
1011;DHT22;494;48.744;10.106;2023-03-11T05:30:04;2.80;28.40
1011;DHT22;494;48.744;10.106;2023-03-11T05:32:34;2.70;28.40
1011;DHT22;494;48.744;10.106;2023-03-11T05:35:03;2.70;28.00
1011;DHT22;494;48.744;10.106;2023-03-11T05:37:33;2.40;28.60
1011;DHT22;494;48.744;10.106;2023-03-11T05:40:05;2.50;29.00
1011;DHT22;494;48.744;10.106;2023-03-11T05:42:37;2.40;28.60
1011;DHT22;494;48.744;10.106;2023-03-11T05:45:08;2.30;29.00
1011;DHT22;494;48.744;10.106;2023-03-11T05:47:38;2.20;29.90
1011;DHT22;494;48.744;10.106;2023-03-11T05:50:09;2.40;30.30
1011;DHT22;494;48.744;10.106;2023-03-11T05:52:38;2.10;30.30
1011;DHT22;494;48.744;10.106;2023-03-11T05:55:09;2.20;30.10
1011;DHT22;494;48.744;10.106;2023-03-11T05:57:38;2.20;30.10
1011;DHT22;494;48.744;10.106;2023-03-11T06:00:09;2.30;29.80
1011;DHT22;494;48.744;10.106;2023-03-11T06:02:39;2.40;29.70
1011;DHT22;494;48.744;10.106;2023-03-11T06:05:08;2.80;28.70
1011;DHT22;494;48.744;10.106;2023-03-11T06:07:39;2.60;28.60
1011;DHT22;494;48.744;10.106;2023-03-11T06:10:10;2.50;29.00
1011;DHT22;494;48.744;10.106;2023-03-11T06:12:39;2.40;28.60
1011;DHT22;494;48.744;10.106;2023-03-11T06:15:09;2.40;29.10
1011;DHT22;494;48.744;10.106;2023-03-11T06:17:37;2.40;29.30
1011;DHT22;494;48.744;10.106;2023-03-11T06:20:07;2.40;29.60
1011;DHT22;494;48.744;10.106;2023-03-11T06:22:37;2.40;29.00
1011;DHT22;494;48.744;10.106;2023-03-11T06:25:06;2.20;28.60
1011;DHT22;494;48.744;10.106;2023-03-11T06:27:38;2.20;29.60
1011;DHT22;494;48.744;10.106;2023-03-11T06:30:08;2.20;29.30
1011;DHT22;494;48.744;10.106;2023-03-11T06:32:38;2.30;29.70
1011;DHT22;494;48.744;10.106;2023-03-11T06:35:07;2.30;29.80
1011;DHT22;494;48.744;10.106;2023-03-11T06:37:36;2.30;29.00
1011;DHT22;494;48.744;10.106;2023-03-11T06:40:06;2.50;29.50
1011;DHT22;494;48.744;10.106;2023-03-11T06:42:38;2.50;29.00
1011;DHT22;494;48.744;10.106;2023-03-11T06:45:07;2.50;28.70
1011;DHT22;494;48.744;10.106;2023-03-11T06:47:36;2.60;28.30
1011;DHT22;494;48.744;10.106;2023-03-11T06:50:06;2.50;28.30
1011;DHT22;494;48.744;10.106;2023-03-11T06:52:35;2.40;28.70
1011;DHT22;494;48.744;10.106;2023-03-11T06:55:05;2.70;29.40
1011;DHT22;494;48.744;10.106;2023-03-11T06:57:34;2.80;28.60
1011;DHT22;494;48.744;10.106;2023-03-11T07:00:05;2.80;27.80
1011;DHT22;494;48.744;10.106;2023-03-11T07:02:37;2.60;28.00
1011;DHT22;494;48.744;10.106;2023-03-11T07:05:06;2.80;28.90
1011;DHT22;494;48.744;10.106;2023-03-11T07:07:35;2.70;28.70
1011;DHT22;494;48.744;10.106;2023-03-11T07:10:05;2.80;28.30
1011;DHT22;494;48.744;10.106;2023-03-11T07:12:34;2.80;28.00
1011;DHT22;494;48.744;10.106;2023-03-11T07:15:05;2.80;28.00
1011;DHT22;494;48.744;10.106;2023-03-11T07:17:34;2.70;28.80
1011;DHT22;494;48.744;10.106;2023-03-11T07:20:03;2.70;28.80
1011;DHT22;494;48.744;10.106;2023-03-11T07:22:32;2.80;28.40
1011;DHT22;494;48.744;10.106;2023-03-11T07:25:01;2.70;27.90
1011;DHT22;494;48.744;10.106;2023-03-11T07:27:29;2.80;28.30
1011;DHT22;494;48.744;10.106;2023-03-11T07:29:59;3.00;27.50
1011;DHT22;494;48.744;10.106;2023-03-11T07:32:30;2.80;27.40
1011;DHT22;494;48.744;10.106;2023-03-11T07:34:59;3.00;27.60
1011;DHT22;494;48.744;10.106;2023-03-11T07:37:27;3.20;26.00
1011;DHT22;494;48.744;10.106;2023-03-11T07:39:56;3.30;25.90
1011;DHT22;494;48.744;10.106;2023-03-11T07:42:24;3.40;25.50
1011;DHT22;494;48.744;10.106;2023-03-11T07:44:53;3.20;25.30
1011;DHT22;494;48.744;10.106;2023-03-11T07:47:21;3.00;25.60
1011;DHT22;494;48.744;10.106;2023-03-11T07:49:52;3.00;26.60
1011;DHT22;494;48.744;10.106;2023-03-11T07:52:23;2.90;26.90
1011;DHT22;494;48.744;10.106;2023-03-11T07:54:51;3.10;27.50
1011;DHT22;494;48.744;10.106;2023-03-11T07:57:20;3.20;26.80
1011;DHT22;494;48.744;10.106;2023-03-11T07:59:49;3.60;26.30
1011;DHT22;494;48.744;10.106;2023-03-11T08:02:17;3.70;25.80
1011;DHT22;494;48.744;10.106;2023-03-11T08:04:46;3.70;25.30
1011;DHT22;494;48.744;10.106;2023-03-11T08:07:16;4.00;24.60
1011;DHT22;494;48.744;10.106;2023-03-11T08:09:46;4.20;23.70
1011;DHT22;494;48.744;10.106;2023-03-11T08:12:15;4.30;23.50
1011;DHT22;494;48.744;10.106;2023-03-11T08:14:44;4.80;23.90
1011;DHT22;494;48.744;10.106;2023-03-11T08:17:12;5.50;21.30
1011;DHT22;494;48.744;10.106;2023-03-11T08:19:41;6.10;18.80
1011;DHT22;494;48.744;10.106;2023-03-11T08:22:10;6.20;18.80
1011;DHT22;494;48.744;10.106;2023-03-11T08:24:40;6.40;18.80
1011;DHT22;494;48.744;10.106;2023-03-11T08:27:08;6.50;17.00
1011;DHT22;494;48.744;10.106;2023-03-11T08:29:38;6.40;17.70
1011;DHT22;494;48.744;10.106;2023-03-11T08:32:07;6.20;18.50
1011;DHT22;494;48.744;10.106;2023-03-11T08:34:36;6.20;17.80
1011;DHT22;494;48.744;10.106;2023-03-11T08:37:05;5.90;18.00
1011;DHT22;494;48.744;10.106;2023-03-11T08:39:34;5.70;18.90
1011;DHT22;494;48.744;10.106;2023-03-11T08:42:04;5.70;19.10
1011;DHT22;494;48.744;10.106;2023-03-11T08:44:33;5.80;18.40
1011;DHT22;494;48.744;10.106;2023-03-11T08:47:02;6.10;18.00
1011;DHT22;494;48.744;10.106;2023-03-11T08:49:30;6.20;18.00
1011;DHT22;494;48.744;10.106;2023-03-11T08:52:00;6.20;17.00
1011;DHT22;494;48.744;10.106;2023-03-11T08:54:29;6.20;17.70
1011;DHT22;494;48.744;10.106;2023-03-11T08:56:59;6.10;18.30
1011;DHT22;494;48.744;10.106;2023-03-11T08:59:31;6.10;17.60
1011;DHT22;494;48.744;10.106;2023-03-11T09:02:00;6.30;18.00
1011;DHT22;494;48.744;10.106;2023-03-11T09:04:28;6.40;17.20
1011;DHT22;494;48.744;10.106;2023-03-11T09:06:57;6.10;16.70
1011;DHT22;494;48.744;10.106;2023-03-11T09:09:25;6.20;17.30
1011;DHT22;494;48.744;10.106;2023-03-11T09:11:54;6.50;18.10
1011;DHT22;494;48.744;10.106;2023-03-11T09:14:23;6.30;17.50
1011;DHT22;494;48.744;10.106;2023-03-11T09:16:53;6.10;16.70
1011;DHT22;494;48.744;10.106;2023-03-11T09:19:21;5.90;17.60
1011;DHT22;494;48.744;10.106;2023-03-11T09:21:50;5.30;18.40
1011;DHT22;494;48.744;10.106;2023-03-11T09:24:18;4.70;19.30
1011;DHT22;494;48.744;10.106;2023-03-11T09:26:47;4.40;20.60
1011;DHT22;494;48.744;10.106;2023-03-11T09:29:15;4.50;21.20
1011;DHT22;494;48.744;10.106;2023-03-11T09:31:44;5.80;19.00
1011;DHT22;494;48.744;10.106;2023-03-11T09:34:14;6.90;15.30
1011;DHT22;494;48.744;10.106;2023-03-11T09:36:43;8.00;13.50
1011;DHT22;494;48.744;10.106;2023-03-11T09:39:13;9.00;11.40
1011;DHT22;494;48.744;10.106;2023-03-11T09:41:48;9.70;10.40
1011;DHT22;494;48.744;10.106;2023-03-11T09:44:28;9.60;8.30
1011;DHT22;494;48.744;10.106;2023-03-11T09:47:23;8.40;10.70
1011;DHT22;494;48.744;10.106;2023-03-11T09:50:30;7.40;12.90
1011;DHT22;494;48.744;10.106;2023-03-11T09:55:59;6.30;14.20
1011;DHT22;494;48.744;10.106;2023-03-11T09:58:36;5.90;14.90
1011;DHT22;494;48.744;10.106;2023-03-11T10:01:14;5.70;14.40
1011;DHT22;494;48.744;10.106;2023-03-11T10:03:45;5.40;15.20
1011;DHT22;494;48.744;10.106;2023-03-11T10:06:20;5.20;16.60
1011;DHT22;494;48.744;10.106;2023-03-11T10:08:56;4.80;17.20
1011;DHT22;494;48.744;10.106;2023-03-11T10:11:46;4.80;17.20
1011;DHT22;494;48.744;10.106;2023-03-11T10:14:38;4.80;17.30
1011;DHT22;494;48.744;10.106;2023-03-11T10:17:19;4.80;16.90
1011;DHT22;494;48.744;10.106;2023-03-11T10:20:05;5.10;17.40
1011;DHT22;494;48.744;10.106;2023-03-11T10:22:48;5.20;17.40
1011;DHT22;494;48.744;10.106;2023-03-11T10:25:29;5.30;17.80
1011;DHT22;494;48.744;10.106;2023-03-11T10:28:07;5.30;17.80
1011;DHT22;494;48.744;10.106;2023-03-11T10:30:43;5.50;18.00
1011;DHT22;494;48.744;10.106;2023-03-11T10:33:19;5.60;17.50
1011;DHT22;494;48.744;10.106;2023-03-11T10:35:54;5.80;16.80
1011;DHT22;494;48.744;10.106;2023-03-11T10:38:29;5.70;17.30
1011;DHT22;494;48.744;10.106;2023-03-11T10:41:06;6.00;17.10
1011;DHT22;494;48.744;10.106;2023-03-11T10:43:44;6.20;16.10
1011;DHT22;494;48.744;10.106;2023-03-11T10:46:19;6.30;16.50
1011;DHT22;494;48.744;10.106;2023-03-11T10:48:50;6.70;15.50
1011;DHT22;494;48.744;10.106;2023-03-11T10:51:21;7.40;15.70
1011;DHT22;494;48.744;10.106;2023-03-11T10:53:55;9.00;12.10
1011;DHT22;494;48.744;10.106;2023-03-11T10:56:28;10.70;8.80
1011;DHT22;494;48.744;10.106;2023-03-11T10:59:00;11.10;7.30
1011;DHT22;494;48.744;10.106;2023-03-11T11:01:30;10.70;6.60
1011;DHT22;494;48.744;10.106;2023-03-11T11:04:00;10.00;7.80
1011;DHT22;494;48.744;10.106;2023-03-11T11:06:31;9.40;8.50
1011;DHT22;494;48.744;10.106;2023-03-11T11:09:16;9.10;9.90
1011;DHT22;494;48.744;10.106;2023-03-11T11:12:03;8.70;10.40
1011;DHT22;494;48.744;10.106;2023-03-11T11:14:44;8.50;11.00
1011;DHT22;494;48.744;10.106;2023-03-11T11:17:22;8.30;11.70
1011;DHT22;494;48.744;10.106;2023-03-11T11:19:54;8.00;12.10
1011;DHT22;494;48.744;10.106;2023-03-11T11:22:24;7.80;12.00
1011;DHT22;494;48.744;10.106;2023-03-11T11:24:55;7.70;12.90
1011;DHT22;494;48.744;10.106;2023-03-11T11:27:26;7.80;12.30
1011;DHT22;494;48.744;10.106;2023-03-11T11:30:13;7.90;11.70
1011;DHT22;494;48.744;10.106;2023-03-11T11:32:45;8.10;12.00
1011;DHT22;494;48.744;10.106;2023-03-11T11:35:14;8.00;11.60
1011;DHT22;494;48.744;10.106;2023-03-11T11:37:47;8.00;12.10
1011;DHT22;494;48.744;10.106;2023-03-11T11:40:25;8.10;12.00
1011;DHT22;494;48.744;10.106;2023-03-11T11:42:56;8.10;11.90
1011;DHT22;494;48.744;10.106;2023-03-11T11:45:36;8.20;12.70
1011;DHT22;494;48.744;10.106;2023-03-11T11:48:13;9.20;10.80
1011;DHT22;494;48.744;10.106;2023-03-11T11:50:50;10.70;7.80
1011;DHT22;494;48.744;10.106;2023-03-11T11:53:29;11.00;6.70
1011;DHT22;494;48.744;10.106;2023-03-11T11:56:04;10.70;7.30
1011;DHT22;494;48.744;10.106;2023-03-11T11:58:39;10.00;8.20
1011;DHT22;494;48.744;10.106;2023-03-11T12:01:14;9.40;9.00
1011;DHT22;494;48.744;10.106;2023-03-11T12:07:06;8.80;9.10
1011;DHT22;494;48.744;10.106;2023-03-11T12:09:51;8.60;10.00
1011;DHT22;494;48.744;10.106;2023-03-11T12:12:51;8.60;10.50
1011;DHT22;494;48.744;10.106;2023-03-11T12:15:36;8.70;11.10
1011;DHT22;494;48.744;10.106;2023-03-11T12:18:11;8.80;9.20
1011;DHT22;494;48.744;10.106;2023-03-11T12:20:47;8.80;8.60
1011;DHT22;494;48.744;10.106;2023-03-11T12:23:31;9.10;7.40
1011;DHT22;494;48.744;10.106;2023-03-11T12:26:14;9.10;7.50
1011;DHT22;494;48.744;10.106;2023-03-11T12:28:49;8.80;7.80
1011;DHT22;494;48.744;10.106;2023-03-11T12:31:25;8.60;9.30
1011;DHT22;494;48.744;10.106;2023-03-11T12:33:59;8.60;9.20
1011;DHT22;494;48.744;10.106;2023-03-11T12:36:31;10.40;7.40
1011;DHT22;494;48.744;10.106;2023-03-11T12:39:03;12.80;3.10
1011;DHT22;494;48.744;10.106;2023-03-11T12:41:35;14.80;1.00
1011;DHT22;494;48.744;10.106;2023-03-11T12:44:25;16.00;1.00
1011;DHT22;494;48.744;10.106;2023-03-11T12:47:19;16.10;1.00
1011;DHT22;494;48.744;10.106;2023-03-11T12:49:51;16.50;1.00
1011;DHT22;494;48.744;10.106;2023-03-11T12:52:28;16.30;1.00
1011;DHT22;494;48.744;10.106;2023-03-11T12:55:29;15.20;1.00
1011;DHT22;494;48.744;10.106;2023-03-11T12:58:23;14.30;1.00
1011;DHT22;494;48.744;10.106;2023-03-11T13:01:19;13.40;1.00
1011;DHT22;494;48.744;10.106;2023-03-11T13:04:13;12.70;1.90
1011;DHT22;494;48.744;10.106;2023-03-11T13:07:14;12.10;2.60
1011;DHT22;494;48.744;10.106;2023-03-11T13:10:12;11.30;4.40
1011;DHT22;494;48.744;10.106;2023-03-11T13:12:44;10.70;4.90
1011;DHT22;494;48.744;10.106;2023-03-11T13:15:25;10.80;4.70
1011;DHT22;494;48.744;10.106;2023-03-11T13:18:01;10.60;5.90
1011;DHT22;494;48.744;10.106;2023-03-11T13:20:47;10.30;7.10
1011;DHT22;494;48.744;10.106;2023-03-11T13:23:30;9.90;7.50
1011;DHT22;494;48.744;10.106;2023-03-11T13:29:23;10.80;7.70
1011;DHT22;494;48.744;10.106;2023-03-11T13:32:15;13.20;3.60
1011;DHT22;494;48.744;10.106;2023-03-11T13:35:02;14.50;1.00
1011;DHT22;494;48.744;10.106;2023-03-11T13:37:46;13.60;1.00
1011;DHT22;494;48.744;10.106;2023-03-11T13:40:32;12.40;1.50
1011;DHT22;494;48.744;10.106;2023-03-11T13:43:08;11.70;2.30
1011;DHT22;494;48.744;10.106;2023-03-11T13:45:39;11.50;3.40
1011;DHT22;494;48.744;10.106;2023-03-11T13:48:13;13.10;1.30
1011;DHT22;494;48.744;10.106;2023-03-11T13:50:50;14.80;1.00
1011;DHT22;494;48.744;10.106;2023-03-11T13:53:27;16.00;1.00
1011;DHT22;494;48.744;10.106;2023-03-11T13:55:59;17.40;1.00
1011;DHT22;494;48.744;10.106;2023-03-11T13:58:27;18.50;1.00
1011;DHT22;494;48.744;10.106;2023-03-11T14:00:57;19.00;1.00
1011;DHT22;494;48.744;10.106;2023-03-11T14:03:30;18.80;1.00
1011;DHT22;494;48.744;10.106;2023-03-11T14:06:07;18.50;1.00
1011;DHT22;494;48.744;10.106;2023-03-11T14:08:39;17.70;1.00
1011;DHT22;494;48.744;10.106;2023-03-11T14:11:16;16.40;1.00
1011;DHT22;494;48.744;10.106;2023-03-11T14:13:47;16.60;1.00
1011;DHT22;494;48.744;10.106;2023-03-11T14:16:19;17.30;1.00
1011;DHT22;494;48.744;10.106;2023-03-11T14:19:01;17.70;1.00
1011;DHT22;494;48.744;10.106;2023-03-11T14:21:34;18.40;1.00
1011;DHT22;494;48.744;10.106;2023-03-11T14:24:03;19.30;1.00
1011;DHT22;494;48.744;10.106;2023-03-11T14:26:34;19.80;1.00
1011;DHT22;494;48.744;10.106;2023-03-11T14:29:07;20.40;1.00
1011;DHT22;494;48.744;10.106;2023-03-11T14:31:39;20.10;1.00
1011;DHT22;494;48.744;10.106;2023-03-11T14:34:14;20.10;1.00
1011;DHT22;494;48.744;10.106;2023-03-11T14:36:47;20.00;1.00
1011;DHT22;494;48.744;10.106;2023-03-11T14:39:22;19.80;1.00
1011;DHT22;494;48.744;10.106;2023-03-11T14:41:58;19.70;1.00
1011;DHT22;494;48.744;10.106;2023-03-11T14:44:35;19.80;1.00
1011;DHT22;494;48.744;10.106;2023-03-11T14:47:10;19.70;1.00
1011;DHT22;494;48.744;10.106;2023-03-11T14:49:46;19.60;1.00
1011;DHT22;494;48.744;10.106;2023-03-11T14:52:21;19.90;1.00
1011;DHT22;494;48.744;10.106;2023-03-11T14:54:57;19.60;1.00
1011;DHT22;494;48.744;10.106;2023-03-11T14:57:34;18.40;1.00
1011;DHT22;494;48.744;10.106;2023-03-11T15:00:12;16.90;1.00
1011;DHT22;494;48.744;10.106;2023-03-11T15:02:55;16.00;1.00
1011;DHT22;494;48.744;10.106;2023-03-11T15:05:34;15.90;1.00
1011;DHT22;494;48.744;10.106;2023-03-11T15:08:16;15.80;1.00
1011;DHT22;494;48.744;10.106;2023-03-11T15:11:06;16.30;1.00
1011;DHT22;494;48.744;10.106;2023-03-11T15:13:46;16.70;1.00
1011;DHT22;494;48.744;10.106;2023-03-11T15:16:28;16.70;1.00
1011;DHT22;494;48.744;10.106;2023-03-11T15:18:59;16.50;1.00
1011;DHT22;494;48.744;10.106;2023-03-11T15:21:29;15.90;1.00
1011;DHT22;494;48.744;10.106;2023-03-11T15:24:02;15.20;1.00
1011;DHT22;494;48.744;10.106;2023-03-11T15:26:34;14.10;1.00
1011;DHT22;494;48.744;10.106;2023-03-11T15:29:13;13.00;1.00
1011;DHT22;494;48.744;10.106;2023-03-11T15:31:44;12.20;1.00
1011;DHT22;494;48.744;10.106;2023-03-11T15:34:27;11.70;1.30
1011;DHT22;494;48.744;10.106;2023-03-11T15:37:00;11.00;1.90
1011;DHT22;494;48.744;10.106;2023-03-11T15:39:49;10.50;2.60
1011;DHT22;494;48.744;10.106;2023-03-11T15:42:23;10.00;4.50
1011;DHT22;494;48.744;10.106;2023-03-11T15:45:09;9.80;5.30
1011;DHT22;494;48.744;10.106;2023-03-11T15:47:41;9.50;6.00
1011;DHT22;494;48.744;10.106;2023-03-11T15:50:17;9.30;7.30
1011;DHT22;494;48.744;10.106;2023-03-11T15:52:52;9.10;6.80
1011;DHT22;494;48.744;10.106;2023-03-11T15:55:25;9.10;7.20
1011;DHT22;494;48.744;10.106;2023-03-11T15:58:01;8.90;7.90
1011;DHT22;494;48.744;10.106;2023-03-11T16:00:33;8.70;8.30
1011;DHT22;494;48.744;10.106;2023-03-11T16:03:03;8.70;9.00
1011;DHT22;494;48.744;10.106;2023-03-11T16:05:32;8.70;8.40
1011;DHT22;494;48.744;10.106;2023-03-11T16:08:01;8.60;8.80
1011;DHT22;494;48.744;10.106;2023-03-11T16:10:35;8.40;9.10
1011;DHT22;494;48.744;10.106;2023-03-11T16:13:05;8.50;8.50
1011;DHT22;494;48.744;10.106;2023-03-11T16:15:37;8.50;8.20
1011;DHT22;494;48.744;10.106;2023-03-11T16:18:07;8.70;8.40
1011;DHT22;494;48.744;10.106;2023-03-11T16:20:39;8.70;8.40
1011;DHT22;494;48.744;10.106;2023-03-11T16:23:14;8.60;8.20
1011;DHT22;494;48.744;10.106;2023-03-11T16:25:47;8.50;8.60
1011;DHT22;494;48.744;10.106;2023-03-11T16:28:20;8.40;8.90
1011;DHT22;494;48.744;10.106;2023-03-11T16:30:49;8.30;9.20
1011;DHT22;494;48.744;10.106;2023-03-11T16:33:19;8.20;9.60
1011;DHT22;494;48.744;10.106;2023-03-11T16:35:48;8.00;9.60
1011;DHT22;494;48.744;10.106;2023-03-11T16:38:17;8.00;9.90
1011;DHT22;494;48.744;10.106;2023-03-11T16:40:56;7.90;10.10
1011;DHT22;494;48.744;10.106;2023-03-11T16:43:27;7.90;9.80
1011;DHT22;494;48.744;10.106;2023-03-11T16:45:59;7.80;9.80
1011;DHT22;494;48.744;10.106;2023-03-11T16:48:30;7.80;10.00
1011;DHT22;494;48.744;10.106;2023-03-11T16:51:01;7.70;10.40
1011;DHT22;494;48.744;10.106;2023-03-11T16:53:30;7.70;10.50
1011;DHT22;494;48.744;10.106;2023-03-11T16:56:00;7.70;9.90
1011;DHT22;494;48.744;10.106;2023-03-11T16:58:29;7.60;10.00
1011;DHT22;494;48.744;10.106;2023-03-11T17:01:00;7.60;10.10
1011;DHT22;494;48.744;10.106;2023-03-11T17:03:31;7.60;10.50
1011;DHT22;494;48.744;10.106;2023-03-11T17:06:08;7.60;11.10